sensor_id;sensor_type;location;lat;lon;timestamp;P1;durP1;ratioP1;P2;durP2;ratioP2
828;SDS011;396;52.558;13.188;2023-01-24T00:01:31;19.00;;;7.80;;
828;SDS011;396;52.558;13.188;2023-01-24T00:03:57;18.50;;;7.67;;
828;SDS011;396;52.558;13.188;2023-01-24T00:06:24;24.10;;;9.40;;
828;SDS011;396;52.558;13.188;2023-01-24T00:08:51;23.10;;;7.60;;
828;SDS011;396;52.558;13.188;2023-01-24T00:11:18;21.30;;;7.87;;
828;SDS011;396;52.558;13.188;2023-01-24T00:13:45;14.93;;;6.23;;
828;SDS011;396;52.558;13.188;2023-01-24T00:16:14;17.63;;;6.73;;
828;SDS011;396;52.558;13.188;2023-01-24T00:18:41;20.90;;;8.03;;
828;SDS011;396;52.558;13.188;2023-01-24T00:21:09;17.77;;;8.30;;
828;SDS011;396;52.558;13.188;2023-01-24T00:23:38;16.60;;;6.90;;
828;SDS011;396;52.558;13.188;2023-01-24T00:26:05;18.43;;;7.17;;
828;SDS011;396;52.558;13.188;2023-01-24T00:28:32;18.40;;;8.00;;
828;SDS011;396;52.558;13.188;2023-01-24T00:30:59;17.20;;;8.17;;
828;SDS011;396;52.558;13.188;2023-01-24T00:33:27;21.00;;;6.57;;
828;SDS011;396;52.558;13.188;2023-01-24T00:35:53;19.07;;;7.87;;
828;SDS011;396;52.558;13.188;2023-01-24T00:38:20;14.70;;;7.53;;
828;SDS011;396;52.558;13.188;2023-01-24T00:40:47;16.37;;;8.27;;
828;SDS011;396;52.558;13.188;2023-01-24T00:43:14;16.43;;;7.83;;
828;SDS011;396;52.558;13.188;2023-01-24T00:45:43;20.60;;;8.00;;
828;SDS011;396;52.558;13.188;2023-01-24T00:48:10;22.63;;;9.27;;
828;SDS011;396;52.558;13.188;2023-01-24T00:50:38;25.47;;;8.67;;
828;SDS011;396;52.558;13.188;2023-01-24T00:53:05;20.00;;;7.80;;
828;SDS011;396;52.558;13.188;2023-01-24T00:55:31;22.43;;;8.13;;
828;SDS011;396;52.558;13.188;2023-01-24T00:57:58;19.97;;;9.10;;
828;SDS011;396;52.558;13.188;2023-01-24T01:00:24;13.30;;;6.97;;
828;SDS011;396;52.558;13.188;2023-01-24T01:02:51;21.13;;;9.33;;
828;SDS011;396;52.558;13.188;2023-01-24T01:05:18;30.20;;;9.60;;
828;SDS011;396;52.558;13.188;2023-01-24T01:07:46;20.97;;;7.93;;
828;SDS011;396;52.558;13.188;2023-01-24T01:10:13;18.53;;;7.70;;
828;SDS011;396;52.558;13.188;2023-01-24T01:12:40;17.70;;;8.07;;
828;SDS011;396;52.558;13.188;2023-01-24T01:15:07;20.77;;;8.10;;
828;SDS011;396;52.558;13.188;2023-01-24T01:17:34;23.73;;;8.30;;
828;SDS011;396;52.558;13.188;2023-01-24T01:20:00;22.57;;;8.60;;
828;SDS011;396;52.558;13.188;2023-01-24T01:22:27;16.60;;;7.40;;
828;SDS011;396;52.558;13.188;2023-01-24T01:24:56;17.03;;;8.10;;
828;SDS011;396;52.558;13.188;2023-01-24T01:27:22;17.20;;;6.43;;
828;SDS011;396;52.558;13.188;2023-01-24T01:29:49;19.33;;;8.50;;
828;SDS011;396;52.558;13.188;2023-01-24T01:32:15;22.33;;;8.03;;
828;SDS011;396;52.558;13.188;2023-01-24T01:34:42;21.50;;;8.37;;
828;SDS011;396;52.558;13.188;2023-01-24T01:37:08;18.97;;;8.57;;
828;SDS011;396;52.558;13.188;2023-01-24T01:39:35;17.97;;;7.40;;
828;SDS011;396;52.558;13.188;2023-01-24T01:42:04;19.43;;;7.30;;
828;SDS011;396;52.558;13.188;2023-01-24T01:44:31;16.23;;;7.20;;
828;SDS011;396;52.558;13.188;2023-01-24T01:47:05;18.43;;;7.37;;
828;SDS011;396;52.558;13.188;2023-01-24T01:49:42;15.07;;;6.70;;
828;SDS011;396;52.558;13.188;2023-01-24T01:52:13;22.23;;;7.33;;
828;SDS011;396;52.558;13.188;2023-01-24T01:54:40;14.50;;;5.43;;
828;SDS011;396;52.558;13.188;2023-01-24T01:57:13;19.10;;;7.60;;
828;SDS011;396;52.558;13.188;2023-01-24T01:59:43;19.37;;;6.60;;
828;SDS011;396;52.558;13.188;2023-01-24T02:02:13;14.80;;;6.00;;
828;SDS011;396;52.558;13.188;2023-01-24T02:04:44;16.77;;;5.87;;
828;SDS011;396;52.558;13.188;2023-01-24T02:07:14;17.13;;;6.20;;
828;SDS011;396;52.558;13.188;2023-01-24T02:09:47;13.40;;;5.70;;
828;SDS011;396;52.558;13.188;2023-01-24T02:12:19;22.73;;;7.03;;
828;SDS011;396;52.558;13.188;2023-01-24T02:14:50;17.70;;;6.60;;
828;SDS011;396;52.558;13.188;2023-01-24T02:17:37;14.27;;;6.40;;
828;SDS011;396;52.558;13.188;2023-01-24T02:20:17;21.03;;;6.00;;
828;SDS011;396;52.558;13.188;2023-01-24T02:22:53;14.50;;;5.37;;
828;SDS011;396;52.558;13.188;2023-01-24T02:25:29;19.13;;;6.57;;
828;SDS011;396;52.558;13.188;2023-01-24T02:28:03;18.13;;;6.20;;
828;SDS011;396;52.558;13.188;2023-01-24T02:30:33;16.70;;;6.03;;
828;SDS011;396;52.558;13.188;2023-01-24T02:33:08;16.23;;;6.00;;
828;SDS011;396;52.558;13.188;2023-01-24T02:35:35;14.93;;;6.20;;
828;SDS011;396;52.558;13.188;2023-01-24T02:38:03;15.63;;;5.70;;
828;SDS011;396;52.558;13.188;2023-01-24T02:40:32;13.03;;;4.87;;
828;SDS011;396;52.558;13.188;2023-01-24T02:43:00;13.40;;;5.10;;
828;SDS011;396;52.558;13.188;2023-01-24T02:45:31;13.77;;;4.47;;
828;SDS011;396;52.558;13.188;2023-01-24T02:47:59;16.20;;;4.83;;
828;SDS011;396;52.558;13.188;2023-01-24T02:50:26;15.13;;;6.23;;
828;SDS011;396;52.558;13.188;2023-01-24T02:53:14;13.07;;;5.17;;
828;SDS011;396;52.558;13.188;2023-01-24T02:55:55;14.43;;;5.90;;
828;SDS011;396;52.558;13.188;2023-01-24T02:58:39;12.93;;;5.30;;
828;SDS011;396;52.558;13.188;2023-01-24T03:01:07;12.57;;;4.70;;
828;SDS011;396;52.558;13.188;2023-01-24T03:03:34;13.67;;;5.90;;
828;SDS011;396;52.558;13.188;2023-01-24T03:06:00;15.07;;;5.40;;
828;SDS011;396;52.558;13.188;2023-01-24T03:08:28;14.93;;;6.03;;
828;SDS011;396;52.558;13.188;2023-01-24T03:10:56;13.43;;;5.80;;
828;SDS011;396;52.558;13.188;2023-01-24T03:13:23;16.10;;;5.17;;
828;SDS011;396;52.558;13.188;2023-01-24T03:16:10;19.10;;;6.30;;
828;SDS011;396;52.558;13.188;2023-01-24T03:18:54;16.70;;;5.53;;
828;SDS011;396;52.558;13.188;2023-01-24T03:21:38;9.43;;;4.83;;
828;SDS011;396;52.558;13.188;2023-01-24T03:24:23;14.40;;;5.30;;
828;SDS011;396;52.558;13.188;2023-01-24T03:27:08;11.87;;;4.90;;
828;SDS011;396;52.558;13.188;2023-01-24T03:29:52;12.50;;;4.73;;
828;SDS011;396;52.558;13.188;2023-01-24T03:32:38;10.80;;;4.97;;
828;SDS011;396;52.558;13.188;2023-01-24T03:35:22;14.47;;;5.57;;
828;SDS011;396;52.558;13.188;2023-01-24T03:37:49;9.80;;;4.40;;
828;SDS011;396;52.558;13.188;2023-01-24T03:40:33;10.57;;;4.50;;
828;SDS011;396;52.558;13.188;2023-01-24T03:43:01;12.67;;;4.90;;
828;SDS011;396;52.558;13.188;2023-01-24T03:45:29;11.80;;;5.07;;
828;SDS011;396;52.558;13.188;2023-01-24T03:47:59;12.43;;;5.10;;
828;SDS011;396;52.558;13.188;2023-01-24T03:50:27;12.40;;;5.13;;
828;SDS011;396;52.558;13.188;2023-01-24T03:53:13;13.27;;;5.23;;
828;SDS011;396;52.558;13.188;2023-01-24T03:55:41;10.50;;;4.40;;
828;SDS011;396;52.558;13.188;2023-01-24T03:58:08;10.20;;;5.03;;
828;SDS011;396;52.558;13.188;2023-01-24T04:00:35;14.73;;;5.60;;
828;SDS011;396;52.558;13.188;2023-01-24T04:03:05;10.53;;;3.90;;
828;SDS011;396;52.558;13.188;2023-01-24T04:05:32;10.10;;;4.43;;
828;SDS011;396;52.558;13.188;2023-01-24T04:07:58;14.37;;;4.70;;
828;SDS011;396;52.558;13.188;2023-01-24T04:10:25;17.20;;;6.10;;
828;SDS011;396;52.558;13.188;2023-01-24T04:12:53;13.90;;;4.90;;
828;SDS011;396;52.558;13.188;2023-01-24T04:15:21;11.17;;;5.27;;
828;SDS011;396;52.558;13.188;2023-01-24T04:17:49;13.47;;;5.57;;
828;SDS011;396;52.558;13.188;2023-01-24T04:20:17;16.00;;;6.50;;
828;SDS011;396;52.558;13.188;2023-01-24T04:22:44;13.27;;;5.63;;
828;SDS011;396;52.558;13.188;2023-01-24T04:25:10;12.47;;;4.63;;
828;SDS011;396;52.558;13.188;2023-01-24T04:27:37;11.90;;;5.83;;
828;SDS011;396;52.558;13.188;2023-01-24T04:30:04;11.70;;;4.77;;
828;SDS011;396;52.558;13.188;2023-01-24T04:32:32;11.33;;;4.83;;
828;SDS011;396;52.558;13.188;2023-01-24T04:34:58;14.10;;;4.67;;
828;SDS011;396;52.558;13.188;2023-01-24T04:37:27;15.37;;;4.47;;
828;SDS011;396;52.558;13.188;2023-01-24T04:39:53;10.70;;;4.80;;
828;SDS011;396;52.558;13.188;2023-01-24T04:42:20;11.70;;;4.27;;
828;SDS011;396;52.558;13.188;2023-01-24T04:44:47;10.50;;;4.43;;
828;SDS011;396;52.558;13.188;2023-01-24T04:47:13;15.17;;;5.33;;
828;SDS011;396;52.558;13.188;2023-01-24T04:49:40;10.47;;;4.57;;
828;SDS011;396;52.558;13.188;2023-01-24T04:52:07;15.07;;;5.10;;
828;SDS011;396;52.558;13.188;2023-01-24T04:54:37;13.20;;;5.23;;
828;SDS011;396;52.558;13.188;2023-01-24T04:57:03;25.70;;;5.57;;
828;SDS011;396;52.558;13.188;2023-01-24T04:59:30;11.17;;;5.10;;
828;SDS011;396;52.558;13.188;2023-01-24T05:01:57;14.57;;;5.10;;
828;SDS011;396;52.558;13.188;2023-01-24T05:04:23;12.10;;;5.13;;
828;SDS011;396;52.558;13.188;2023-01-24T05:06:50;13.40;;;4.70;;
828;SDS011;396;52.558;13.188;2023-01-24T05:09:16;12.63;;;5.33;;
828;SDS011;396;52.558;13.188;2023-01-24T05:11:44;11.57;;;5.13;;
828;SDS011;396;52.558;13.188;2023-01-24T05:14:11;13.87;;;4.23;;
828;SDS011;396;52.558;13.188;2023-01-24T05:16:38;10.33;;;4.73;;
828;SDS011;396;52.558;13.188;2023-01-24T05:19:05;14.20;;;5.33;;
828;SDS011;396;52.558;13.188;2023-01-24T05:21:31;14.77;;;6.33;;
828;SDS011;396;52.558;13.188;2023-01-24T05:23:58;11.57;;;5.07;;
828;SDS011;396;52.558;13.188;2023-01-24T05:26:25;9.63;;;3.70;;
828;SDS011;396;52.558;13.188;2023-01-24T05:28:54;15.13;;;5.40;;
828;SDS011;396;52.558;13.188;2023-01-24T05:31:20;11.67;;;5.40;;
828;SDS011;396;52.558;13.188;2023-01-24T05:33:47;10.97;;;5.07;;
828;SDS011;396;52.558;13.188;2023-01-24T05:36:15;10.63;;;4.93;;
828;SDS011;396;52.558;13.188;2023-01-24T05:38:43;14.83;;;5.90;;
828;SDS011;396;52.558;13.188;2023-01-24T05:41:11;10.20;;;4.60;;
828;SDS011;396;52.558;13.188;2023-01-24T05:43:41;13.23;;;5.30;;
828;SDS011;396;52.558;13.188;2023-01-24T05:46:10;14.93;;;4.50;;
828;SDS011;396;52.558;13.188;2023-01-24T05:48:38;11.70;;;3.80;;
828;SDS011;396;52.558;13.188;2023-01-24T05:51:05;12.40;;;4.53;;
828;SDS011;396;52.558;13.188;2023-01-24T05:53:33;13.40;;;5.30;;
828;SDS011;396;52.558;13.188;2023-01-24T05:56:02;13.47;;;4.63;;
828;SDS011;396;52.558;13.188;2023-01-24T05:58:32;13.53;;;5.03;;
828;SDS011;396;52.558;13.188;2023-01-24T06:00:59;10.87;;;4.43;;
828;SDS011;396;52.558;13.188;2023-01-24T06:03:27;11.10;;;4.63;;
828;SDS011;396;52.558;13.188;2023-01-24T06:05:54;12.07;;;5.30;;
828;SDS011;396;52.558;13.188;2023-01-24T06:08:21;11.20;;;4.27;;
828;SDS011;396;52.558;13.188;2023-01-24T06:10:48;11.17;;;3.97;;
828;SDS011;396;52.558;13.188;2023-01-24T06:13:14;13.20;;;4.93;;
828;SDS011;396;52.558;13.188;2023-01-24T06:15:41;11.70;;;4.43;;
828;SDS011;396;52.558;13.188;2023-01-24T06:18:09;9.97;;;4.93;;
828;SDS011;396;52.558;13.188;2023-01-24T06:20:41;10.87;;;4.50;;
828;SDS011;396;52.558;13.188;2023-01-24T06:23:09;11.00;;;5.10;;
828;SDS011;396;52.558;13.188;2023-01-24T06:25:42;11.53;;;5.23;;
828;SDS011;396;52.558;13.188;2023-01-24T06:28:09;12.23;;;5.20;;
828;SDS011;396;52.558;13.188;2023-01-24T06:30:37;10.67;;;4.67;;
828;SDS011;396;52.558;13.188;2023-01-24T06:33:12;17.93;;;5.67;;
828;SDS011;396;52.558;13.188;2023-01-24T06:35:53;9.97;;;5.10;;
828;SDS011;396;52.558;13.188;2023-01-24T06:38:32;9.50;;;5.03;;
828;SDS011;396;52.558;13.188;2023-01-24T06:41:00;10.13;;;4.50;;
828;SDS011;396;52.558;13.188;2023-01-24T06:43:28;10.17;;;4.63;;
828;SDS011;396;52.558;13.188;2023-01-24T06:45:55;13.03;;;6.27;;
828;SDS011;396;52.558;13.188;2023-01-24T06:48:21;12.10;;;5.30;;
828;SDS011;396;52.558;13.188;2023-01-24T06:50:48;15.03;;;5.90;;
828;SDS011;396;52.558;13.188;2023-01-24T06:53:16;12.53;;;5.17;;
828;SDS011;396;52.558;13.188;2023-01-24T06:55:43;19.20;;;5.97;;
828;SDS011;396;52.558;13.188;2023-01-24T06:58:10;12.93;;;5.33;;
828;SDS011;396;52.558;13.188;2023-01-24T07:00:37;11.67;;;5.50;;
828;SDS011;396;52.558;13.188;2023-01-24T07:03:04;10.30;;;5.03;;
828;SDS011;396;52.558;13.188;2023-01-24T07:05:32;15.50;;;6.27;;
828;SDS011;396;52.558;13.188;2023-01-24T07:07:59;10.70;;;4.67;;
828;SDS011;396;52.558;13.188;2023-01-24T07:10:27;14.10;;;6.30;;
828;SDS011;396;52.558;13.188;2023-01-24T07:12:54;13.40;;;4.83;;
828;SDS011;396;52.558;13.188;2023-01-24T07:15:20;12.60;;;5.23;;
828;SDS011;396;52.558;13.188;2023-01-24T07:17:47;17.13;;;5.90;;
828;SDS011;396;52.558;13.188;2023-01-24T07:20:14;11.53;;;4.37;;
828;SDS011;396;52.558;13.188;2023-01-24T07:22:42;11.83;;;4.80;;
828;SDS011;396;52.558;13.188;2023-01-24T07:25:11;10.83;;;4.80;;
828;SDS011;396;52.558;13.188;2023-01-24T07:27:41;12.00;;;4.13;;
828;SDS011;396;52.558;13.188;2023-01-24T07:30:09;22.07;;;5.87;;
828;SDS011;396;52.558;13.188;2023-01-24T07:32:36;11.40;;;5.80;;
828;SDS011;396;52.558;13.188;2023-01-24T07:35:04;11.60;;;6.03;;
828;SDS011;396;52.558;13.188;2023-01-24T07:37:31;13.50;;;5.90;;
828;SDS011;396;52.558;13.188;2023-01-24T07:39:58;16.10;;;5.40;;
828;SDS011;396;52.558;13.188;2023-01-24T07:42:25;12.90;;;4.93;;
828;SDS011;396;52.558;13.188;2023-01-24T07:44:52;13.50;;;5.33;;
828;SDS011;396;52.558;13.188;2023-01-24T07:47:21;11.07;;;5.03;;
828;SDS011;396;52.558;13.188;2023-01-24T07:49:48;13.70;;;5.43;;
828;SDS011;396;52.558;13.188;2023-01-24T07:52:14;13.40;;;5.20;;
828;SDS011;396;52.558;13.188;2023-01-24T07:54:41;12.50;;;5.07;;
828;SDS011;396;52.558;13.188;2023-01-24T07:57:07;10.57;;;5.13;;
828;SDS011;396;52.558;13.188;2023-01-24T07:59:34;13.80;;;5.00;;
828;SDS011;396;52.558;13.188;2023-01-24T08:02:02;12.77;;;5.87;;
828;SDS011;396;52.558;13.188;2023-01-24T08:04:29;9.80;;;4.47;;
828;SDS011;396;52.558;13.188;2023-01-24T08:06:55;10.67;;;5.17;;
828;SDS011;396;52.558;13.188;2023-01-24T08:09:35;18.90;;;6.07;;
828;SDS011;396;52.558;13.188;2023-01-24T08:12:03;15.10;;;5.00;;
828;SDS011;396;52.558;13.188;2023-01-24T08:14:29;14.50;;;5.60;;
828;SDS011;396;52.558;13.188;2023-01-24T08:16:56;12.03;;;4.77;;
828;SDS011;396;52.558;13.188;2023-01-24T08:19:24;13.77;;;4.63;;
828;SDS011;396;52.558;13.188;2023-01-24T08:21:51;23.23;;;5.63;;
828;SDS011;396;52.558;13.188;2023-01-24T08:24:17;12.20;;;4.17;;
828;SDS011;396;52.558;13.188;2023-01-24T08:26:44;12.87;;;5.00;;
828;SDS011;396;52.558;13.188;2023-01-24T08:29:11;22.83;;;6.00;;
828;SDS011;396;52.558;13.188;2023-01-24T08:31:38;16.10;;;5.90;;
828;SDS011;396;52.558;13.188;2023-01-24T08:34:04;10.50;;;4.77;;
828;SDS011;396;52.558;13.188;2023-01-24T08:36:32;18.20;;;5.90;;
828;SDS011;396;52.558;13.188;2023-01-24T08:38:59;11.73;;;4.57;;
828;SDS011;396;52.558;13.188;2023-01-24T08:41:25;15.93;;;4.90;;
828;SDS011;396;52.558;13.188;2023-01-24T08:43:52;12.77;;;4.93;;
828;SDS011;396;52.558;13.188;2023-01-24T08:46:18;12.77;;;4.87;;
828;SDS011;396;52.558;13.188;2023-01-24T08:48:45;15.30;;;5.70;;
828;SDS011;396;52.558;13.188;2023-01-24T08:51:12;15.03;;;6.00;;
828;SDS011;396;52.558;13.188;2023-01-24T08:53:40;20.00;;;5.50;;
828;SDS011;396;52.558;13.188;2023-01-24T08:56:06;25.80;;;7.07;;
828;SDS011;396;52.558;13.188;2023-01-24T08:58:33;16.30;;;6.80;;
828;SDS011;396;52.558;13.188;2023-01-24T09:00:59;18.00;;;6.60;;
828;SDS011;396;52.558;13.188;2023-01-24T09:03:26;15.23;;;6.57;;
828;SDS011;396;52.558;13.188;2023-01-24T09:05:55;23.83;;;7.20;;
828;SDS011;396;52.558;13.188;2023-01-24T09:08:22;15.27;;;6.03;;
828;SDS011;396;52.558;13.188;2023-01-24T09:10:50;15.17;;;6.93;;
828;SDS011;396;52.558;13.188;2023-01-24T09:13:16;17.13;;;6.00;;
828;SDS011;396;52.558;13.188;2023-01-24T09:15:43;19.63;;;7.03;;
828;SDS011;396;52.558;13.188;2023-01-24T09:18:10;19.37;;;6.50;;
828;SDS011;396;52.558;13.188;2023-01-24T09:20:37;26.80;;;7.57;;
828;SDS011;396;52.558;13.188;2023-01-24T09:23:07;13.70;;;6.10;;
828;SDS011;396;52.558;13.188;2023-01-24T09:25:34;27.77;;;7.20;;
828;SDS011;396;52.558;13.188;2023-01-24T09:28:02;16.93;;;6.80;;
828;SDS011;396;52.558;13.188;2023-01-24T09:30:28;26.53;;;7.50;;
828;SDS011;396;52.558;13.188;2023-01-24T09:32:55;19.23;;;8.23;;
828;SDS011;396;52.558;13.188;2023-01-24T09:35:21;30.83;;;7.53;;
828;SDS011;396;52.558;13.188;2023-01-24T09:37:50;24.40;;;7.53;;
828;SDS011;396;52.558;13.188;2023-01-24T09:40:18;23.33;;;7.87;;
828;SDS011;396;52.558;13.188;2023-01-24T09:42:51;25.53;;;8.57;;
828;SDS011;396;52.558;13.188;2023-01-24T09:45:27;27.53;;;8.67;;
828;SDS011;396;52.558;13.188;2023-01-24T09:47:57;27.00;;;8.80;;
828;SDS011;396;52.558;13.188;2023-01-24T09:50:27;19.03;;;7.87;;
828;SDS011;396;52.558;13.188;2023-01-24T09:53:00;24.90;;;7.63;;
828;SDS011;396;52.558;13.188;2023-01-24T09:55:28;23.57;;;8.37;;
828;SDS011;396;52.558;13.188;2023-01-24T09:57:58;27.07;;;8.77;;
828;SDS011;396;52.558;13.188;2023-01-24T10:00:33;29.60;;;9.17;;
828;SDS011;396;52.558;13.188;2023-01-24T10:03:02;28.30;;;7.63;;
828;SDS011;396;52.558;13.188;2023-01-24T10:05:32;20.07;;;7.73;;
828;SDS011;396;52.558;13.188;2023-01-24T10:10:49;22.53;;;8.87;;
828;SDS011;396;52.558;13.188;2023-01-24T10:13:40;23.10;;;8.30;;
828;SDS011;396;52.558;13.188;2023-01-24T10:16:37;28.60;;;8.10;;
828;SDS011;396;52.558;13.188;2023-01-24T10:19:19;26.37;;;9.50;;
828;SDS011;396;52.558;13.188;2023-01-24T10:22:03;33.20;;;11.07;;
828;SDS011;396;52.558;13.188;2023-01-24T10:24:44;31.80;;;10.50;;
828;SDS011;396;52.558;13.188;2023-01-24T10:27:20;28.53;;;8.50;;
828;SDS011;396;52.558;13.188;2023-01-24T10:29:53;44.33;;;11.20;;
828;SDS011;396;52.558;13.188;2023-01-24T10:32:29;33.13;;;10.47;;
828;SDS011;396;52.558;13.188;2023-01-24T10:34:58;37.33;;;10.27;;
828;SDS011;396;52.558;13.188;2023-01-24T10:37:30;24.30;;;9.57;;
828;SDS011;396;52.558;13.188;2023-01-24T10:40:09;33.47;;;9.40;;
828;SDS011;396;52.558;13.188;2023-01-24T10:42:37;28.20;;;9.70;;
828;SDS011;396;52.558;13.188;2023-01-24T10:45:09;23.60;;;10.60;;
828;SDS011;396;52.558;13.188;2023-01-24T10:47:56;34.77;;;9.97;;
828;SDS011;396;52.558;13.188;2023-01-24T10:50:32;33.83;;;9.57;;
828;SDS011;396;52.558;13.188;2023-01-24T10:53:10;28.73;;;10.10;;
828;SDS011;396;52.558;13.188;2023-01-24T10:55:38;37.40;;;10.30;;
828;SDS011;396;52.558;13.188;2023-01-24T10:58:17;39.20;;;11.93;;
828;SDS011;396;52.558;13.188;2023-01-24T11:00:47;36.40;;;12.20;;
828;SDS011;396;52.558;13.188;2023-01-24T11:03:24;40.30;;;11.43;;
828;SDS011;396;52.558;13.188;2023-01-24T11:05:53;52.97;;;12.63;;
828;SDS011;396;52.558;13.188;2023-01-24T11:08:21;37.10;;;11.60;;
828;SDS011;396;52.558;13.188;2023-01-24T11:10:52;39.30;;;12.60;;
828;SDS011;396;52.558;13.188;2023-01-24T11:16:03;47.57;;;12.47;;
828;SDS011;396;52.558;13.188;2023-01-24T11:18:33;49.77;;;13.33;;
828;SDS011;396;52.558;13.188;2023-01-24T11:21:04;38.20;;;12.00;;
828;SDS011;396;52.558;13.188;2023-01-24T11:23:37;46.23;;;11.70;;
828;SDS011;396;52.558;13.188;2023-01-24T11:26:04;51.83;;;10.97;;
828;SDS011;396;52.558;13.188;2023-01-24T11:28:33;36.17;;;11.07;;
828;SDS011;396;52.558;13.188;2023-01-24T11:31:02;38.10;;;12.70;;
828;SDS011;396;52.558;13.188;2023-01-24T11:33:51;39.00;;;11.70;;
828;SDS011;396;52.558;13.188;2023-01-24T11:36:36;60.87;;;14.27;;
828;SDS011;396;52.558;13.188;2023-01-24T11:39:13;46.20;;;12.77;;
828;SDS011;396;52.558;13.188;2023-01-24T11:41:50;31.00;;;10.97;;
828;SDS011;396;52.558;13.188;2023-01-24T11:44:29;40.60;;;12.57;;
828;SDS011;396;52.558;13.188;2023-01-24T11:47:07;63.13;;;12.67;;
828;SDS011;396;52.558;13.188;2023-01-24T11:53:01;38.00;;;11.83;;
828;SDS011;396;52.558;13.188;2023-01-24T11:55:43;27.07;;;9.03;;
828;SDS011;396;52.558;13.188;2023-01-24T11:58:23;52.77;;;12.07;;
828;SDS011;396;52.558;13.188;2023-01-24T12:01:02;38.80;;;10.33;;
828;SDS011;396;52.558;13.188;2023-01-24T12:06:42;52.13;;;12.63;;
828;SDS011;396;52.558;13.188;2023-01-24T12:09:16;33.20;;;11.63;;
828;SDS011;396;52.558;13.188;2023-01-24T12:11:48;32.40;;;10.80;;
828;SDS011;396;52.558;13.188;2023-01-24T12:14:35;40.83;;;11.20;;
828;SDS011;396;52.558;13.188;2023-01-24T12:17:15;39.07;;;11.77;;
828;SDS011;396;52.558;13.188;2023-01-24T12:19:54;23.40;;;9.23;;
828;SDS011;396;52.558;13.188;2023-01-24T12:22:43;53.97;;;12.17;;
828;SDS011;396;52.558;13.188;2023-01-24T12:25:13;40.27;;;11.57;;
828;SDS011;396;52.558;13.188;2023-01-24T12:27:48;31.47;;;9.43;;
828;SDS011;396;52.558;13.188;2023-01-24T12:30:22;35.47;;;12.37;;
828;SDS011;396;52.558;13.188;2023-01-24T12:32:57;30.20;;;10.43;;
828;SDS011;396;52.558;13.188;2023-01-24T12:35:31;32.97;;;11.40;;
828;SDS011;396;52.558;13.188;2023-01-24T12:38:03;39.30;;;10.60;;
828;SDS011;396;52.558;13.188;2023-01-24T12:40:38;55.57;;;14.47;;
828;SDS011;396;52.558;13.188;2023-01-24T12:43:12;45.40;;;11.60;;
828;SDS011;396;52.558;13.188;2023-01-24T12:45:45;47.87;;;10.50;;
828;SDS011;396;52.558;13.188;2023-01-24T12:48:21;33.40;;;11.23;;
828;SDS011;396;52.558;13.188;2023-01-24T12:50:56;40.03;;;9.00;;
828;SDS011;396;52.558;13.188;2023-01-24T12:53:31;38.83;;;11.10;;
828;SDS011;396;52.558;13.188;2023-01-24T12:56:08;29.17;;;10.33;;
828;SDS011;396;52.558;13.188;2023-01-24T12:58:40;34.70;;;9.40;;
828;SDS011;396;52.558;13.188;2023-01-24T13:04:12;29.47;;;10.57;;
828;SDS011;396;52.558;13.188;2023-01-24T13:06:50;35.23;;;10.90;;
828;SDS011;396;52.558;13.188;2023-01-24T13:09:30;33.80;;;10.20;;
828;SDS011;396;52.558;13.188;2023-01-24T13:12:07;36.70;;;11.00;;
828;SDS011;396;52.558;13.188;2023-01-24T13:14:40;29.63;;;9.80;;
828;SDS011;396;52.558;13.188;2023-01-24T13:17:28;37.87;;;9.87;;
828;SDS011;396;52.558;13.188;2023-01-24T13:20:08;37.37;;;9.67;;
828;SDS011;396;52.558;13.188;2023-01-24T13:22:55;38.10;;;9.67;;
828;SDS011;396;52.558;13.188;2023-01-24T13:26:06;43.97;;;11.30;;
828;SDS011;396;52.558;13.188;2023-01-24T13:28:48;33.97;;;10.20;;
828;SDS011;396;52.558;13.188;2023-01-24T13:31:28;39.73;;;10.70;;
828;SDS011;396;52.558;13.188;2023-01-24T13:33:57;40.67;;;10.90;;
828;SDS011;396;52.558;13.188;2023-01-24T13:36:29;34.87;;;9.20;;
828;SDS011;396;52.558;13.188;2023-01-24T13:38:58;40.87;;;9.97;;
828;SDS011;396;52.558;13.188;2023-01-24T13:41:36;36.63;;;9.87;;
828;SDS011;396;52.558;13.188;2023-01-24T13:44:29;26.20;;;8.63;;
828;SDS011;396;52.558;13.188;2023-01-24T13:46:57;33.57;;;9.73;;
828;SDS011;396;52.558;13.188;2023-01-24T13:49:32;28.40;;;9.47;;
828;SDS011;396;52.558;13.188;2023-01-24T13:58:26;40.63;;;10.00;;
828;SDS011;396;52.558;13.188;2023-01-24T14:00:54;37.47;;;12.07;;
828;SDS011;396;52.558;13.188;2023-01-24T14:03:24;35.53;;;9.20;;
828;SDS011;396;52.558;13.188;2023-01-24T14:05:55;66.40;;;10.90;;
828;SDS011;396;52.558;13.188;2023-01-24T14:08:34;42.17;;;9.80;;
828;SDS011;396;52.558;13.188;2023-01-24T14:17:03;37.50;;;10.90;;
828;SDS011;396;52.558;13.188;2023-01-24T14:19:54;48.00;;;11.47;;
828;SDS011;396;52.558;13.188;2023-01-24T14:22:25;47.33;;;10.93;;
828;SDS011;396;52.558;13.188;2023-01-24T14:25:01;33.47;;;10.03;;
828;SDS011;396;52.558;13.188;2023-01-24T14:27:35;33.37;;;9.30;;
828;SDS011;396;52.558;13.188;2023-01-24T14:30:18;30.53;;;9.77;;
828;SDS011;396;52.558;13.188;2023-01-24T14:32:57;41.43;;;11.30;;
828;SDS011;396;52.558;13.188;2023-01-24T14:35:31;31.43;;;9.87;;
828;SDS011;396;52.558;13.188;2023-01-24T14:38:13;32.07;;;10.33;;
828;SDS011;396;52.558;13.188;2023-01-24T14:40:41;47.87;;;10.80;;
828;SDS011;396;52.558;13.188;2023-01-24T14:43:10;30.93;;;8.70;;
828;SDS011;396;52.558;13.188;2023-01-24T14:45:40;26.30;;;9.00;;
828;SDS011;396;52.558;13.188;2023-01-24T14:48:08;21.47;;;9.30;;
828;SDS011;396;52.558;13.188;2023-01-24T14:50:39;24.80;;;9.50;;
828;SDS011;396;52.558;13.188;2023-01-24T14:53:21;35.73;;;10.27;;
828;SDS011;396;52.558;13.188;2023-01-24T14:55:54;23.57;;;8.27;;
828;SDS011;396;52.558;13.188;2023-01-24T14:58:23;35.90;;;10.00;;
828;SDS011;396;52.558;13.188;2023-01-24T15:00:52;43.73;;;9.47;;
828;SDS011;396;52.558;13.188;2023-01-24T15:03:21;35.80;;;9.73;;
828;SDS011;396;52.558;13.188;2023-01-24T15:05:50;38.10;;;12.30;;
828;SDS011;396;52.558;13.188;2023-01-24T15:08:20;35.90;;;11.50;;
828;SDS011;396;52.558;13.188;2023-01-24T15:10:51;31.80;;;9.73;;
828;SDS011;396;52.558;13.188;2023-01-24T15:13:26;26.50;;;9.90;;
828;SDS011;396;52.558;13.188;2023-01-24T15:15:58;33.43;;;10.20;;
828;SDS011;396;52.558;13.188;2023-01-24T15:18:29;32.57;;;10.17;;
828;SDS011;396;52.558;13.188;2023-01-24T15:21:01;31.40;;;10.40;;
828;SDS011;396;52.558;13.188;2023-01-24T15:23:28;25.87;;;9.80;;
828;SDS011;396;52.558;13.188;2023-01-24T15:25:57;31.87;;;9.37;;
828;SDS011;396;52.558;13.188;2023-01-24T15:28:26;28.93;;;10.53;;
828;SDS011;396;52.558;13.188;2023-01-24T15:30:55;35.37;;;9.47;;
828;SDS011;396;52.558;13.188;2023-01-24T15:33:24;27.93;;;8.90;;
828;SDS011;396;52.558;13.188;2023-01-24T15:35:52;33.10;;;10.33;;
828;SDS011;396;52.558;13.188;2023-01-24T15:38:20;23.03;;;8.73;;
828;SDS011;396;52.558;13.188;2023-01-24T15:40:50;37.97;;;11.00;;
828;SDS011;396;52.558;13.188;2023-01-24T15:43:20;29.93;;;10.83;;
828;SDS011;396;52.558;13.188;2023-01-24T15:46:13;35.87;;;9.63;;
828;SDS011;396;52.558;13.188;2023-01-24T15:49:01;36.03;;;9.03;;
828;SDS011;396;52.558;13.188;2023-01-24T15:51:31;28.90;;;10.33;;
828;SDS011;396;52.558;13.188;2023-01-24T15:53:59;30.03;;;10.40;;
828;SDS011;396;52.558;13.188;2023-01-24T15:56:26;29.07;;;8.50;;
828;SDS011;396;52.558;13.188;2023-01-24T15:58:55;34.03;;;9.93;;
828;SDS011;396;52.558;13.188;2023-01-24T16:01:26;26.10;;;9.00;;
828;SDS011;396;52.558;13.188;2023-01-24T16:03:58;29.60;;;9.13;;